createdAt,value
2023-04-03T00:02:15.469Z,97426.81
2023-04-03T00:05:12.315Z,97435.75
2023-04-03T00:08:10.507Z,97419.78
2023-04-03T00:11:08.666Z,97426.63
2023-04-03T00:14:05.500Z,97428.38
2023-04-03T00:17:02.325Z,97432.94
2023-04-03T00:19:59.276Z,97434.19
2023-04-03T00:22:56.427Z,97434.56
2023-04-03T00:25:54.307Z,97442.31
2023-04-03T00:28:51.145Z,97448.63
2023-04-03T00:31:47.929Z,97443.50
2023-04-03T00:34:45.352Z,97446.91
2023-04-03T00:37:42.935Z,97446.13
2023-04-03T00:40:44.928Z,97443.56
2023-04-03T00:43:41.920Z,97447.97
2023-04-03T00:46:38.776Z,97447.31
2023-04-03T00:49:38.047Z,97453.84
2023-04-03T00:52:34.980Z,97454.59
2023-04-03T00:55:32.738Z,97441.03
2023-04-03T00:58:40.069Z,97446.50
2023-04-03T01:01:38.218Z,97443.09
2023-04-03T01:04:39.474Z,97448.47
2023-04-03T01:07:37.985Z,97451.63
2023-04-03T01:10:35.155Z,97452.03
2023-04-03T01:13:34.298Z,97449.75
2023-04-03T01:16:32.765Z,97452.59
2023-04-03T01:19:30.538Z,97458.03
2023-04-03T01:22:59.774Z,97457.28
2023-04-03T01:25:58.284Z,97444.25
2023-04-03T01:28:56.519Z,97457.59
2023-04-03T01:31:59.644Z,97455.00
2023-04-03T01:34:56.483Z,97453.75
2023-04-03T01:37:53.411Z,97457.00
2023-04-03T01:40:50.236Z,97462.03
2023-04-03T01:43:47.147Z,97460.97
2023-04-03T01:46:44.055Z,97453.56
2023-04-03T01:49:41.081Z,97459.19
2023-04-03T01:52:37.888Z,97463.88
2023-04-03T01:55:34.783Z,97453.13
2023-04-03T01:58:31.674Z,97460.06
2023-04-03T02:01:28.615Z,97467.88
2023-04-03T02:04:25.737Z,97464.28
2023-04-03T02:07:22.624Z,97470.59
2023-04-03T02:10:19.598Z,97465.72
2023-04-03T02:13:17.962Z,97479.03
2023-04-03T02:16:14.901Z,97471.25
2023-04-03T02:19:11.850Z,97467.09
2023-04-03T02:22:08.643Z,97466.34
2023-04-03T02:25:06.096Z,97465.50
2023-04-03T02:28:02.937Z,97466.06
2023-04-03T02:30:59.881Z,97471.78
2023-04-03T02:33:56.804Z,97476.31
2023-04-03T02:36:53.593Z,97471.84
2023-04-03T02:39:50.668Z,97468.09
2023-04-03T02:42:47.497Z,97477.84
2023-04-03T02:45:44.745Z,97471.91
2023-04-03T02:48:41.606Z,97468.31
2023-04-03T02:51:38.436Z,97476.09
2023-04-03T02:54:35.366Z,97477.31
2023-04-03T02:57:32.205Z,97480.09
2023-04-03T03:00:29.225Z,97478.28
2023-04-03T03:03:26.029Z,97469.50
2023-04-03T03:06:22.832Z,97478.00
2023-04-03T03:09:19.793Z,97481.06
2023-04-03T03:12:16.776Z,97477.75
2023-04-03T03:15:13.877Z,97480.59
2023-04-03T03:18:10.770Z,97475.97
2023-04-03T03:21:07.615Z,97477.88
2023-04-03T03:24:04.596Z,97484.91
2023-04-03T03:27:01.429Z,97483.38
2023-04-03T03:29:58.264Z,97480.91
2023-04-03T03:32:55.344Z,97488.22
2023-04-03T03:35:54.193Z,97483.22
2023-04-03T03:38:51.157Z,97481.00
2023-04-03T03:41:48.406Z,97484.50
2023-04-03T03:44:45.318Z,97478.31
2023-04-03T03:47:42.249Z,97492.25
2023-04-03T03:50:39.152Z,97490.34
2023-04-03T03:53:36.096Z,97485.78
2023-04-03T03:56:33.131Z,97491.84
2023-04-03T03:59:29.987Z,97498.28
2023-04-03T04:02:27.081Z,97493.84
2023-04-03T04:05:24.146Z,97494.91
2023-04-03T04:08:21.049Z,97493.25
2023-04-03T04:11:17.990Z,97504.63
2023-04-03T04:14:15.002Z,97491.47
2023-04-03T04:17:11.848Z,97496.91
2023-04-03T04:20:09.600Z,97498.22
2023-04-03T04:23:06.401Z,97498.84
2023-04-03T04:26:03.339Z,97504.13
2023-04-03T04:29:00.249Z,97500.47
2023-04-03T04:31:57.070Z,97503.03
2023-04-03T04:34:53.912Z,97508.78
2023-04-03T04:37:51.061Z,97514.25
2023-04-03T04:40:49.548Z,97511.50
2023-04-03T04:43:46.365Z,97509.00
2023-04-03T04:46:43.290Z,97515.75
2023-04-03T04:49:40.217Z,97507.06
2023-04-03T04:52:37.234Z,97512.66
2023-04-03T04:55:34.100Z,97513.97
2023-04-03T04:58:30.996Z,97519.75
2023-04-03T05:01:27.831Z,97531.16
2023-04-03T05:04:24.795Z,97528.25
2023-04-03T05:07:21.693Z,97533.00
2023-04-03T05:10:18.636Z,97533.66
2023-04-03T05:13:15.769Z,97541.94
2023-04-03T05:16:12.739Z,97533.00
2023-04-03T05:19:09.813Z,97534.59
2023-04-03T05:22:07.044Z,97539.34
2023-04-03T05:25:04.714Z,97537.13
2023-04-03T05:28:01.576Z,97536.66
2023-04-03T05:30:59.857Z,97540.13
2023-04-03T05:33:57.133Z,97536.28
2023-04-03T05:36:54.138Z,97537.75
2023-04-03T05:39:51.335Z,97542.22
2023-04-03T05:42:48.255Z,97543.97
2023-04-03T05:45:46.848Z,97547.84
2023-04-03T05:48:45.420Z,97553.69
2023-04-03T05:51:42.444Z,97546.44
2023-04-03T05:54:39.779Z,97558.78
2023-04-03T05:57:36.906Z,97551.03
2023-04-03T06:00:33.996Z,97558.91
2023-04-03T06:03:31.240Z,97557.47
2023-04-03T06:06:48.888Z,97565.28
2023-04-03T06:09:45.904Z,97569.69
2023-04-03T06:12:42.758Z,97565.84
2023-04-03T06:15:40.851Z,97561.41
2023-04-03T06:18:37.685Z,97574.38
2023-04-03T06:21:34.577Z,97581.66
2023-04-03T06:24:32.603Z,97569.47
2023-04-03T06:27:29.561Z,97575.56
2023-04-03T06:30:26.612Z,97574.59
2023-04-03T06:33:23.459Z,97583.88
2023-04-03T06:36:22.104Z,97587.28
2023-04-03T06:39:23.472Z,97584.50
2023-04-03T06:42:20.295Z,97585.31
2023-04-03T06:45:17.545Z,97586.50
2023-04-03T06:48:14.473Z,97588.91
2023-04-03T06:51:21.650Z,97601.25
2023-04-03T06:54:19.254Z,97593.78
2023-04-03T06:57:16.270Z,97592.94
2023-04-03T07:00:14.214Z,97589.84
2023-04-03T07:03:11.050Z,97601.63
2023-04-03T07:06:11.701Z,97600.59
2023-04-03T07:09:08.704Z,97594.06
2023-04-03T07:12:05.604Z,97611.59
2023-04-03T07:15:02.524Z,97609.81
2023-04-03T07:17:59.412Z,97600.94
2023-04-03T07:20:56.797Z,97613.09
2023-04-03T07:23:53.683Z,97612.38
2023-04-03T07:26:52.485Z,97621.22
2023-04-03T07:29:49.581Z,97621.94
2023-04-03T07:32:46.887Z,97633.88
2023-04-03T07:35:44.906Z,97631.31
2023-04-03T07:38:41.747Z,97636.22
2023-04-03T07:41:38.602Z,97634.88
2023-04-03T07:44:36.457Z,97641.72
2023-04-03T07:47:33.302Z,97640.19
2023-04-03T07:50:31.458Z,97619.53
2023-04-03T07:53:28.863Z,97633.53
2023-04-03T07:56:26.199Z,97627.44
2023-04-03T07:59:23.028Z,97625.28
2023-04-03T08:02:19.827Z,97617.44
2023-04-03T08:05:17.873Z,97614.03
2023-04-03T08:08:20.893Z,97600.81
2023-04-03T08:11:19.673Z,97613.09
2023-04-03T08:14:18.822Z,97614.53
2023-04-03T08:17:15.868Z,97620.34
2023-04-03T08:20:12.932Z,97625.16
2023-04-03T08:23:10.534Z,97625.34
2023-04-03T08:26:14.888Z,97636.56
2023-04-03T08:29:11.816Z,97627.63
2023-04-03T08:32:08.712Z,97631.25
2023-04-03T08:35:06.815Z,97638.19
2023-04-03T08:38:03.739Z,97642.41
2023-04-03T08:41:32.776Z,97639.28
2023-04-03T08:44:53.107Z,97634.13
2023-04-03T08:48:18.111Z,97628.47
2023-04-03T08:51:19.692Z,97643.59
2023-04-03T08:54:32.985Z,97640.91
2023-04-03T08:57:40.640Z,97645.91
2023-04-03T09:01:04.983Z,97661.66
2023-04-03T09:04:17.088Z,97658.34
2023-04-03T09:07:34.162Z,97685.91
2023-04-03T09:10:36.255Z,97678.47
2023-04-03T09:13:51.709Z,97673.75
2023-04-03T09:17:11.315Z,97666.97
2023-04-03T09:20:20.711Z,97675.69
2023-04-03T09:23:33.586Z,97671.66
2023-04-03T09:26:37.117Z,97675.47
2023-04-03T09:29:40.467Z,97661.75
2023-04-03T09:32:37.789Z,97648.63
2023-04-03T09:35:48.105Z,97655.72
2023-04-03T09:38:46.610Z,97637.91
2023-04-03T09:42:00.941Z,97639.16
2023-04-03T09:45:04.567Z,97650.66
2023-04-03T09:48:16.149Z,97646.91
2023-04-03T09:51:16.874Z,97635.56
2023-04-03T09:54:39.537Z,97632.66
2023-04-03T09:57:36.533Z,97645.03
2023-04-03T10:00:39.569Z,97637.88
2023-04-03T10:03:37.584Z,97630.94
2023-04-03T10:06:41.657Z,97625.41
2023-04-03T10:09:42.186Z,97624.84
2023-04-03T10:12:38.987Z,97623.59
2023-04-03T10:15:45.904Z,97623.22
2023-04-03T10:19:08.146Z,97623.13
2023-04-03T10:22:19.665Z,97593.69
2023-04-03T10:25:31.698Z,97610.16
2023-04-03T10:28:47.657Z,97593.78
2023-04-03T10:32:13.814Z,97604.00
2023-04-03T10:35:39.566Z,97593.22
2023-04-03T10:38:58.530Z,97596.09
2023-04-03T10:42:17.701Z,97604.72
2023-04-03T10:45:48.511Z,97586.97
2023-04-03T10:49:03.574Z,97586.38
2023-04-03T10:52:23.248Z,97597.84
2023-04-03T10:55:43.890Z,97586.91
2023-04-03T10:58:46.304Z,97602.25
2023-04-03T11:01:49.022Z,97595.31
2023-04-03T11:04:53.195Z,97583.81
2023-04-03T11:07:54.311Z,97594.56
2023-04-03T11:10:52.996Z,97598.41
2023-04-03T11:13:53.823Z,97590.56
2023-04-03T11:17:11.521Z,97571.69
2023-04-03T11:20:28.625Z,97572.84
2023-04-03T11:23:48.150Z,97574.66
2023-04-03T11:26:46.387Z,97577.53
2023-04-03T11:29:46.895Z,97565.50
2023-04-03T11:32:53.909Z,97565.03
2023-04-03T11:35:56.698Z,97551.69
2023-04-03T11:38:59.890Z,97559.94
2023-04-03T11:42:13.635Z,97567.25
2023-04-03T11:45:36.486Z,97563.56
2023-04-03T11:48:36.872Z,97568.19
2023-04-03T11:51:42.541Z,97579.34
2023-04-03T11:54:44.786Z,97568.16
2023-04-03T11:58:04.945Z,97560.22
2023-04-03T12:01:08.522Z,97561.47
2023-04-03T12:04:14.950Z,97546.00
2023-04-03T12:07:20.836Z,97546.66
2023-04-03T12:10:30.797Z,97547.38
2023-04-03T12:13:31.310Z,97543.97
2023-04-03T12:16:33.379Z,97534.97
2023-04-03T12:19:44.288Z,97530.09
2023-04-03T12:23:01.314Z,97522.59
2023-04-03T12:26:20.641Z,97546.63
2023-04-03T12:29:33.966Z,97539.19
2023-04-03T12:33:12.989Z,97536.66
2023-04-03T12:36:23.673Z,97540.97
2023-04-03T12:39:45.120Z,97540.78
2023-04-03T12:43:19.903Z,97530.13
2023-04-03T12:46:43.343Z,97523.25
2023-04-03T12:49:43.745Z,97506.84
2023-04-03T12:52:46.994Z,97509.69
2023-04-03T12:55:44.157Z,97507.38
2023-04-03T12:58:41.100Z,97521.50
2023-04-03T13:01:38.023Z,97509.81
2023-04-03T13:04:35.073Z,97510.53
2023-04-03T13:07:38.936Z,97501.16
2023-04-03T13:11:07.185Z,97500.97
2023-04-03T13:14:15.852Z,97504.03
2023-04-03T13:17:17.380Z,97488.50
2023-04-03T13:20:24.432Z,97507.47
2023-04-03T13:23:22.105Z,97519.38
2023-04-03T13:26:22.675Z,97527.38
2023-04-03T13:29:37.007Z,97497.09
2023-04-03T13:32:34.025Z,97504.34
2023-04-03T13:35:41.525Z,97500.31
2023-04-03T13:38:38.472Z,97496.38
2023-04-03T13:41:39.121Z,97501.78
2023-04-03T13:44:40.447Z,97510.19
2023-04-03T13:47:44.493Z,97491.94
2023-04-03T13:51:05.406Z,97491.25
2023-04-03T13:54:12.011Z,97495.13
2023-04-03T13:57:16.737Z,97495.47
2023-04-03T14:00:31.398Z,97489.75
2023-04-03T14:03:47.076Z,97506.13
2023-04-03T14:06:44.798Z,97504.16
2023-04-03T14:09:41.673Z,97491.63
2023-04-03T14:12:42.400Z,97483.91
2023-04-03T14:15:39.548Z,97494.66
2023-04-03T14:18:38.214Z,97504.56
2023-04-03T14:21:35.066Z,97506.50
2023-04-03T14:24:31.882Z,97501.66
2023-04-03T14:27:38.789Z,97523.16
2023-04-03T14:30:36.556Z,97507.63
2023-04-03T14:33:35.814Z,97491.34
2023-04-03T14:36:33.852Z,97484.88
2023-04-03T14:39:31.282Z,97501.22
2023-04-03T14:42:33.117Z,97500.72
2023-04-03T14:45:30.076Z,97499.84
2023-04-03T14:48:30.484Z,97491.91
2023-04-03T14:51:27.452Z,97488.81
2023-04-03T14:54:29.083Z,97486.31
2023-04-03T14:57:31.031Z,97482.63
2023-04-03T15:00:28.487Z,97505.16
2023-04-03T15:03:25.721Z,97493.50
2023-04-03T15:06:23.240Z,97487.66
2023-04-03T15:09:26.610Z,97482.50
2023-04-03T15:12:25.879Z,97481.44
2023-04-03T15:15:24.828Z,97478.53
2023-04-03T15:18:27.921Z,97479.63
2023-04-03T15:21:25.980Z,97502.25
2023-04-03T15:24:22.874Z,97501.41
2023-04-03T15:27:20.029Z,97512.84
2023-04-03T15:30:19.738Z,97489.81
2023-04-03T15:33:16.738Z,97482.53
2023-04-03T15:36:29.121Z,97471.44
2023-04-03T15:39:30.846Z,97479.69
2023-04-03T15:42:27.678Z,97472.09
2023-04-03T15:45:24.766Z,97470.81
2023-04-03T15:48:21.594Z,97474.00
2023-04-03T15:51:18.568Z,97492.47
2023-04-03T15:54:16.641Z,97504.72
2023-04-03T15:57:13.773Z,97489.16
2023-04-03T16:00:11.650Z,97472.75
2023-04-03T16:03:18.003Z,97469.63
2023-04-03T16:06:19.822Z,97468.72
2023-04-03T16:09:16.892Z,97468.81
2023-04-03T16:12:13.766Z,97478.53
2023-04-03T16:15:11.512Z,97479.09
2023-04-03T16:18:10.861Z,97477.88
2023-04-03T16:21:10.123Z,97491.97
2023-04-03T16:24:07.520Z,97485.75
2023-04-03T16:27:04.640Z,97496.75
2023-04-03T16:30:01.479Z,97499.97
2023-04-03T16:32:58.624Z,97503.78
2023-04-03T16:35:55.681Z,97508.16
2023-04-03T16:38:52.722Z,97503.91
2023-04-03T16:41:49.574Z,97505.16
2023-04-03T16:44:46.466Z,97511.97
2023-04-03T16:47:43.461Z,97512.06
2023-04-03T16:50:40.433Z,97513.19
2023-04-03T16:53:37.355Z,97513.03
2023-04-03T16:56:34.305Z,97511.34
2023-04-03T16:59:31.214Z,97523.34
2023-04-03T17:02:28.602Z,97526.31
2023-04-03T17:05:25.576Z,97524.72
2023-04-03T17:08:22.382Z,97533.91
2023-04-03T17:11:20.015Z,97531.94
2023-04-03T17:14:17.026Z,97537.84
2023-04-03T17:17:15.857Z,97536.09
2023-04-03T17:20:13.234Z,97533.53
2023-04-03T17:23:10.100Z,97535.94
2023-04-03T17:26:07.036Z,97546.97
2023-04-03T17:29:04.961Z,97539.34
2023-04-03T17:32:02.133Z,97538.13
2023-04-03T17:34:59.011Z,97530.25
2023-04-03T17:37:56.249Z,97540.53
2023-04-03T17:40:57.600Z,97539.66
2023-04-03T17:43:56.955Z,97538.19
2023-04-03T17:46:53.821Z,97526.19
2023-04-03T17:49:51.593Z,97529.97
2023-04-03T17:52:48.404Z,97542.78
2023-04-03T17:55:45.358Z,97534.53
2023-04-03T17:58:42.964Z,97535.34
2023-04-03T18:01:40.368Z,97538.63
2023-04-03T18:04:37.400Z,97541.66
2023-04-03T18:07:34.373Z,97539.50
2023-04-03T18:10:31.322Z,97538.28
2023-04-03T18:13:28.253Z,97546.53
2023-04-03T18:16:25.406Z,97545.28
2023-04-03T18:19:23.854Z,97543.41
2023-04-03T18:22:24.108Z,97539.94
2023-04-03T18:25:21.226Z,97554.53
2023-04-03T18:28:18.341Z,97550.00
2023-04-03T18:31:17.263Z,97559.91
2023-04-03T18:34:14.112Z,97553.81
2023-04-03T18:37:11.244Z,97543.16
2023-04-03T18:40:09.022Z,97558.34
2023-04-03T18:43:06.492Z,97565.81
2023-04-03T18:46:05.363Z,97559.94
2023-04-03T18:49:02.874Z,97554.13
2023-04-03T18:51:59.873Z,97548.50
2023-04-03T18:54:56.943Z,97555.53
2023-04-03T18:57:53.807Z,97562.75
2023-04-03T19:00:51.000Z,97567.06
2023-04-03T19:03:48.215Z,97561.06
2023-04-03T19:06:45.102Z,97570.63
2023-04-03T19:09:42.071Z,97576.72
2023-04-03T19:12:38.882Z,97573.75
2023-04-03T19:15:35.871Z,97582.84
2023-04-03T19:18:32.963Z,97572.81
2023-04-03T19:21:30.229Z,97574.81
2023-04-03T19:24:27.157Z,97573.22
2023-04-03T19:27:24.026Z,97574.66
2023-04-03T19:30:21.062Z,97569.00
2023-04-03T19:33:17.894Z,97576.25
2023-04-03T19:36:15.792Z,97574.91
2023-04-03T19:39:14.811Z,97571.09
2023-04-03T19:42:13.069Z,97576.75
2023-04-03T19:45:12.680Z,97581.00
2023-04-03T19:48:10.210Z,97572.72
2023-04-03T19:51:08.278Z,97582.59
2023-04-03T19:54:06.014Z,97569.38
2023-04-03T19:57:02.989Z,97583.16
2023-04-03T19:59:59.929Z,97573.03
2023-04-03T20:02:57.385Z,97575.19
2023-04-03T20:05:55.049Z,97567.94
2023-04-03T20:08:53.579Z,97579.06
2023-04-03T20:11:51.476Z,97573.22
2023-04-03T20:14:49.461Z,97573.63
2023-04-03T20:17:46.381Z,97578.63
2023-04-03T20:20:57.297Z,97574.28
2023-04-03T20:23:54.134Z,97580.28
2023-04-03T20:26:50.956Z,97582.78
2023-04-03T20:29:47.882Z,97575.53
2023-04-03T20:32:44.878Z,97591.72
2023-04-03T20:35:41.723Z,97583.78
2023-04-03T20:38:38.672Z,97577.81
2023-04-03T20:41:37.633Z,97583.88
2023-04-03T20:44:34.495Z,97583.97
2023-04-03T20:47:31.608Z,97581.88
2023-04-03T20:50:28.983Z,97587.78
2023-04-03T20:53:27.185Z,97586.97
2023-04-03T20:56:24.347Z,97587.16
2023-04-03T20:59:22.528Z,97589.06
2023-04-03T21:02:20.655Z,97585.59
2023-04-03T21:05:17.690Z,97583.00
2023-04-03T21:09:11.100Z,97579.31
2023-04-03T21:13:04.471Z,97560.34
2023-04-03T21:16:02.212Z,97570.59
2023-04-03T21:19:15.881Z,97568.31
2023-04-03T21:22:13.789Z,97567.59
2023-04-03T21:25:10.779Z,97560.69
2023-04-03T21:28:07.680Z,97565.34
2023-04-03T21:31:04.614Z,97558.72
2023-04-03T21:34:01.652Z,97553.91
2023-04-03T21:37:04.618Z,97560.44
2023-04-03T21:40:01.652Z,97560.13
2023-04-03T21:42:58.554Z,97561.03
2023-04-03T21:45:57.482Z,97557.44
2023-04-03T21:48:55.907Z,97561.91
2023-04-03T21:51:52.830Z,97554.66
2023-04-03T21:54:49.656Z,97558.63
2023-04-03T21:57:53.692Z,97559.84
2023-04-03T22:00:51.056Z,97560.44
2023-04-03T22:03:48.070Z,97562.16
2023-04-03T22:06:45.697Z,97567.16
2023-04-03T22:09:42.595Z,97556.31
2023-04-03T22:12:39.461Z,97561.13
2023-04-03T22:15:47.268Z,97554.25
2023-04-03T22:18:44.199Z,97557.28
2023-04-03T22:21:42.567Z,97559.41
2023-04-03T22:24:40.112Z,97560.69
2023-04-03T22:27:37.000Z,97555.44
2023-04-03T22:30:33.867Z,97553.47
2023-04-03T22:33:31.210Z,97551.06
2023-04-03T22:36:28.044Z,97555.91
2023-04-03T22:39:24.908Z,97553.84
2023-04-03T22:42:21.777Z,97553.69
2023-04-03T22:45:18.596Z,97547.25
2023-04-03T22:48:16.394Z,97548.88
2023-04-03T22:51:13.439Z,97559.81
2023-04-03T22:54:10.419Z,97551.13
2023-04-03T22:57:07.668Z,97560.41
2023-04-03T23:00:04.901Z,97551.88
2023-04-03T23:03:02.047Z,97551.38
2023-04-03T23:05:58.912Z,97558.66
2023-04-03T23:08:56.127Z,97552.38
2023-04-03T23:11:52.969Z,97559.06
2023-04-03T23:14:49.804Z,97555.41
2023-04-03T23:17:49.163Z,97553.75
2023-04-03T23:20:46.371Z,97551.38
2023-04-03T23:23:43.218Z,97553.53
2023-04-03T23:26:40.058Z,97547.25
2023-04-03T23:29:37.256Z,97540.75
2023-04-03T23:32:34.288Z,97544.31
2023-04-03T23:35:31.554Z,97548.72
2023-04-03T23:38:28.380Z,97554.34
2023-04-03T23:41:25.269Z,97555.34
2023-04-03T23:44:22.113Z,97545.22
2023-04-03T23:47:19.187Z,97540.59
2023-04-03T23:50:16.458Z,97539.28
2023-04-03T23:53:13.600Z,97538.59
2023-04-03T23:56:12.518Z,97532.72
2023-04-03T23:59:09.322Z,97529.53
